createdAt,value
2023-04-11T00:01:38.094Z,100257.92
2023-04-11T00:04:06.410Z,100254.73
2023-04-11T00:06:34.560Z,100249.39
2023-04-11T00:09:02.456Z,100246.69
2023-04-11T00:11:32.305Z,100243.14
2023-04-11T00:14:00.258Z,100244.17
2023-04-11T00:16:30.310Z,100243.78
2023-04-11T00:18:58.338Z,100242.28
2023-04-11T00:21:26.366Z,100243.67
2023-04-11T00:23:55.419Z,100241.46
2023-04-11T00:26:23.566Z,100242.11
2023-04-11T00:28:53.359Z,100237.25
2023-04-11T00:31:21.827Z,100237.86
2023-04-11T00:33:49.774Z,100232.44
2023-04-11T00:36:17.812Z,100233.23
2023-04-11T00:38:46.623Z,100226.33
2023-04-11T00:41:17.832Z,100224.48
2023-04-11T00:43:49.773Z,100221.69
2023-04-11T00:46:18.603Z,100218.59
2023-04-11T00:48:47.170Z,100220.45
2023-04-11T00:51:25.813Z,100220.39
2023-04-11T00:53:56.719Z,100222.81
2023-04-11T00:56:24.714Z,100217.59
2023-04-11T00:58:53.705Z,100217.48
2023-04-11T01:01:25.183Z,100220.62
2023-04-11T01:03:54.039Z,100224.95
2023-04-11T01:06:22.839Z,100222.52
2023-04-11T01:08:54.678Z,100224.75
2023-04-11T01:11:23.433Z,100225.03
2023-04-11T01:13:51.314Z,100221.91
2023-04-11T01:16:21.811Z,100221.14
2023-04-11T01:18:50.025Z,100222.27
2023-04-11T01:21:19.521Z,100219.46
2023-04-11T01:23:48.876Z,100213.67
2023-04-11T01:26:16.800Z,100214.41
2023-04-11T01:28:44.824Z,100209.48
2023-04-11T01:31:13.012Z,100208.43
2023-04-11T01:33:41.334Z,100205.63
2023-04-11T01:36:09.571Z,100201.91
2023-04-11T01:38:38.692Z,100200.34
2023-04-11T01:41:06.876Z,100198.98
2023-04-11T01:43:35.425Z,100195.85
2023-04-11T01:46:03.271Z,100196.99
2023-04-11T01:48:34.068Z,100196.04
2023-04-11T01:51:02.012Z,100192.79
2023-04-11T01:53:29.896Z,100187.89
2023-04-11T01:55:58.932Z,100188.17
2023-04-11T01:58:26.840Z,100183.51
2023-04-11T02:00:55.690Z,100177.77
2023-04-11T02:03:24.373Z,100176.97
2023-04-11T02:05:52.416Z,100175.30
2023-04-11T02:08:28.251Z,100178.23
2023-04-11T02:10:57.288Z,100176.36
2023-04-11T02:13:25.279Z,100174.48
2023-04-11T02:15:53.638Z,100174.23
2023-04-11T02:18:25.133Z,100172.67
2023-04-11T02:20:53.266Z,100175.42
2023-04-11T02:23:24.312Z,100171.77
2023-04-11T02:25:52.669Z,100169.73
2023-04-11T02:28:21.209Z,100168.34
2023-04-11T02:30:51.258Z,100170.30
2023-04-11T02:33:20.651Z,100165.37
2023-04-11T02:35:48.583Z,100163.83
2023-04-11T02:38:17.818Z,100165.84
2023-04-11T02:40:47.458Z,100164.67
2023-04-11T02:43:18.957Z,100158.52
2023-04-11T02:45:46.941Z,100156.11
2023-04-11T02:48:15.740Z,100151.16
2023-04-11T02:50:46.860Z,100148.18
2023-04-11T02:53:16.612Z,100148.78
2023-04-11T02:55:49.476Z,100146.70
2023-04-11T02:58:20.212Z,100143.20
2023-04-11T03:00:49.370Z,100141.69
2023-04-11T03:03:26.537Z,100140.51
2023-04-11T03:05:57.077Z,100138.99
2023-04-11T03:08:25.684Z,100141.38
2023-04-11T03:10:56.783Z,100141.08
2023-04-11T03:13:26.330Z,100137.91
2023-04-11T03:15:54.339Z,100140.40
2023-04-11T03:18:23.265Z,100137.78
2023-04-11T03:20:51.912Z,100139.05
2023-04-11T03:23:20.322Z,100141.21
2023-04-11T03:25:51.079Z,100145.14
2023-04-11T03:28:19.365Z,100137.86
2023-04-11T03:30:48.922Z,100134.89
2023-04-11T03:33:20.544Z,100135.11
2023-04-11T03:35:48.443Z,100135.84
2023-04-11T03:38:16.936Z,100139.74
2023-04-11T03:40:44.783Z,100139.20
2023-04-11T03:43:17.361Z,100140.25
2023-04-11T03:45:45.708Z,100140.95
2023-04-11T03:48:29.772Z,100142.17
2023-04-11T03:51:03.918Z,100141.96
2023-04-11T03:53:43.826Z,100142.63
2023-04-11T03:56:22.434Z,100141.37
2023-04-11T03:58:50.433Z,100139.71
2023-04-11T04:01:18.766Z,100134.27
2023-04-11T04:03:48.565Z,100135.14
2023-04-11T04:06:17.262Z,100131.85
2023-04-11T04:08:46.494Z,100129.19
2023-04-11T04:11:15.264Z,100125.27
2023-04-11T04:13:43.625Z,100128.80
2023-04-11T04:16:17.034Z,100124.91
2023-04-11T04:18:48.417Z,100120.85
2023-04-11T04:21:16.770Z,100116.06
2023-04-11T04:23:49.065Z,100116.58
2023-04-11T04:26:17.177Z,100107.71
2023-04-11T04:29:04.810Z,100108.56
2023-04-11T04:31:43.774Z,100107.35
2023-04-11T04:34:12.019Z,100107.05
2023-04-11T04:36:47.838Z,100104.54
2023-04-11T04:39:19.056Z,100105.17
2023-04-11T04:41:58.127Z,100106.63
2023-04-11T04:44:28.220Z,100114.13
2023-04-11T04:46:59.033Z,100116.23
2023-04-11T04:49:28.468Z,100116.81
2023-04-11T04:51:56.327Z,100116.71
2023-04-11T04:54:31.326Z,100118.73
2023-04-11T04:57:00.036Z,100116.75
2023-04-11T04:59:28.193Z,100118.98
2023-04-11T05:02:01.064Z,100113.63
2023-04-11T05:04:30.492Z,100114.41
2023-04-11T05:07:00.364Z,100116.17
2023-04-11T05:09:31.003Z,100111.41
2023-04-11T05:12:11.794Z,100113.01
2023-04-11T05:14:40.189Z,100114.27
2023-04-11T05:17:12.046Z,100115.16
2023-04-11T05:19:41.014Z,100112.88
2023-04-11T05:22:09.446Z,100111.96
2023-04-11T05:24:40.860Z,100111.77
2023-04-11T05:27:10.451Z,100110.11
2023-04-11T05:29:38.497Z,100113.39
2023-04-11T05:32:13.183Z,100115.04
2023-04-11T05:34:58.698Z,100114.50
2023-04-11T05:37:45.083Z,100117.36
2023-04-11T05:40:14.411Z,100115.63
2023-04-11T05:42:43.031Z,100116.38
2023-04-11T05:45:12.322Z,100118.30
2023-04-11T05:47:40.956Z,100120.86
2023-04-11T05:50:10.625Z,100122.23
2023-04-11T05:52:38.992Z,100125.54
2023-04-11T05:55:07.854Z,100125.41
2023-04-11T05:57:41.337Z,100131.50
2023-04-11T06:00:14.410Z,100131.11
2023-04-11T06:02:43.765Z,100133.13
2023-04-11T06:05:18.062Z,100127.21
2023-04-11T06:07:47.817Z,100131.50
2023-04-11T06:10:15.811Z,100134.71
2023-04-11T06:12:50.835Z,100131.59
2023-04-11T06:15:19.383Z,100132.79
2023-04-11T06:17:47.370Z,100130.88
2023-04-11T06:20:17.633Z,100135.75
2023-04-11T06:22:47.003Z,100134.95
2023-04-11T06:25:15.824Z,100131.48
2023-04-11T06:27:45.640Z,100130.98
2023-04-11T06:30:14.548Z,100131.73
2023-04-11T06:32:43.525Z,100129.45
2023-04-11T06:35:12.457Z,100129.71
2023-04-11T06:37:42.368Z,100133.77
2023-04-11T06:40:13.229Z,100135.98
2023-04-11T06:42:42.241Z,100133.92
2023-04-11T06:45:12.095Z,100132.20
2023-04-11T06:47:40.413Z,100129.48
2023-04-11T06:50:08.818Z,100128.42
2023-04-11T06:52:36.942Z,100132.75
2023-04-11T06:55:07.333Z,100126.75
2023-04-11T06:57:35.271Z,100128.62
2023-04-11T07:00:07.047Z,100130.87
2023-04-11T07:02:36.409Z,100123.34
2023-04-11T07:05:05.693Z,100115.05
2023-04-11T07:07:34.000Z,100117.54
2023-04-11T07:10:01.950Z,100113.46
2023-04-11T07:12:30.000Z,100113.69
2023-04-11T07:15:04.869Z,100116.77
2023-04-11T07:17:33.878Z,100111.48
2023-04-11T07:20:01.968Z,100110.65
2023-04-11T07:22:30.288Z,100111.25
2023-04-11T07:24:58.575Z,100114.89
2023-04-11T07:27:26.642Z,100107.55
2023-04-11T07:29:56.369Z,100109.05
2023-04-11T07:32:24.444Z,100100.10
2023-04-11T07:34:52.422Z,100099.30
2023-04-11T07:37:20.759Z,100102.75
2023-04-11T07:39:48.923Z,100096.35
2023-04-11T07:42:17.317Z,100097.30
2023-04-11T07:44:45.117Z,100094.62
2023-04-11T07:47:18.907Z,100095.00
2023-04-11T07:49:46.906Z,100090.30
2023-04-11T07:52:14.974Z,100090.81
2023-04-11T07:54:43.878Z,100096.49
2023-04-11T07:57:11.789Z,100093.16
2023-04-11T07:59:40.237Z,100095.63
2023-04-11T08:02:09.128Z,100088.87
2023-04-11T08:04:37.578Z,100096.86
2023-04-11T08:07:06.975Z,100101.07
2023-04-11T08:09:36.305Z,100090.09
2023-04-11T08:12:04.588Z,100089.29
2023-04-11T08:14:35.982Z,100089.98
2023-04-11T08:17:12.047Z,100082.02
2023-04-11T08:19:45.992Z,100087.50
2023-04-11T08:22:16.253Z,100086.48
2023-04-11T08:24:44.279Z,100089.20
2023-04-11T08:27:12.269Z,100085.33
2023-04-11T08:29:42.836Z,100084.23
2023-04-11T08:32:10.831Z,100088.20
2023-04-11T08:34:39.171Z,100081.17
2023-04-11T08:37:07.565Z,100080.25
2023-04-11T08:39:36.224Z,100070.36
2023-04-11T08:42:04.962Z,100068.77
2023-04-11T08:44:33.362Z,100065.39
2023-04-11T08:47:02.621Z,100066.23
2023-04-11T08:49:30.541Z,100063.71
2023-04-11T08:51:58.381Z,100063.13
2023-04-11T08:54:26.280Z,100052.35
2023-04-11T08:56:54.165Z,100048.86
2023-04-11T08:59:27.413Z,100048.59
2023-04-11T09:02:06.368Z,100049.41
2023-04-11T09:04:41.492Z,100048.66
2023-04-11T09:07:15.762Z,100050.63
2023-04-11T09:09:43.664Z,100046.25
2023-04-11T09:12:14.556Z,100044.98
2023-04-11T09:14:43.187Z,100040.77
2023-04-11T09:17:14.418Z,100037.36
2023-04-11T09:19:42.443Z,100031.48
2023-04-11T09:22:11.097Z,100028.42
2023-04-11T09:24:39.322Z,100020.66
2023-04-11T09:27:11.334Z,100022.66
2023-04-11T09:29:47.411Z,100018.56
2023-04-11T09:32:34.619Z,100018.21
2023-04-11T09:35:20.361Z,100011.10
2023-04-11T09:37:58.986Z,100003.34
2023-04-11T09:40:28.638Z,99996.97
2023-04-11T09:43:00.669Z,99988.94
2023-04-11T09:45:30.897Z,99986.55
2023-04-11T09:48:00.685Z,99979.91
2023-04-11T09:50:29.908Z,99971.52
2023-04-11T09:52:59.229Z,99975.66
2023-04-11T09:55:27.717Z,99973.76
2023-04-11T09:57:55.583Z,99973.20
2023-04-11T10:00:29.174Z,99965.88
2023-04-11T10:02:57.651Z,99961.70
2023-04-11T10:05:27.486Z,99965.33
2023-04-11T10:08:08.033Z,99964.22
2023-04-11T10:10:36.203Z,99966.73
2023-04-11T10:13:38.572Z,99964.27
2023-04-11T10:16:15.021Z,99964.92
2023-04-11T10:18:55.321Z,99959.67
2023-04-11T10:21:29.069Z,99948.50
2023-04-11T10:24:10.568Z,99946.85
2023-04-11T10:26:59.232Z,99953.37
2023-04-11T10:29:43.050Z,99944.63
2023-04-11T10:32:20.092Z,99938.35
2023-04-11T10:34:50.791Z,99937.08
2023-04-11T10:37:35.147Z,99931.70
2023-04-11T10:40:21.116Z,99928.96
2023-04-11T10:42:50.277Z,99926.23
2023-04-11T10:45:28.705Z,99926.35
2023-04-11T10:48:00.968Z,99916.19
2023-04-11T10:50:40.865Z,99916.60
2023-04-11T10:53:14.256Z,99918.95
2023-04-11T10:55:50.015Z,99915.76
2023-04-11T10:58:22.196Z,99915.20
2023-04-11T11:00:56.554Z,99902.08
2023-04-11T11:03:28.120Z,99907.35
2023-04-11T11:05:59.869Z,99901.23
2023-04-11T11:08:30.686Z,99898.85
2023-04-11T11:11:03.126Z,99897.20
2023-04-11T11:13:44.000Z,99893.53
2023-04-11T11:16:16.623Z,99892.50
2023-04-11T11:18:46.770Z,99885.73
2023-04-11T11:21:20.759Z,99881.02
2023-04-11T11:23:57.476Z,99883.27
2023-04-11T11:26:41.906Z,99878.38
2023-04-11T11:31:48.015Z,99896.41
2023-04-11T11:34:26.270Z,99925.86
2023-04-11T11:36:56.375Z,99914.08
2023-04-11T11:39:24.513Z,99899.73
2023-04-11T11:41:53.683Z,99895.75
2023-04-11T11:44:23.562Z,99886.38
2023-04-11T11:47:18.203Z,99876.80
2023-04-11T11:49:50.270Z,99871.33
2023-04-11T11:52:42.602Z,99859.48
2023-04-11T11:55:19.698Z,99856.39
2023-04-11T11:57:48.978Z,99846.88
2023-04-11T12:00:24.342Z,99841.19
2023-04-11T12:02:56.466Z,99841.34
2023-04-11T12:05:25.005Z,99831.56
2023-04-11T12:07:54.838Z,99825.55
2023-04-11T12:10:22.897Z,99821.30
2023-04-11T12:12:52.833Z,99814.28
2023-04-11T12:15:23.768Z,99811.45
2023-04-11T12:17:52.611Z,99800.08
2023-04-11T12:20:24.662Z,99798.13
2023-04-11T12:22:54.512Z,99795.87
2023-04-11T12:25:23.073Z,99787.29
2023-04-11T12:27:51.356Z,99783.14
2023-04-11T12:30:19.473Z,99780.17
2023-04-11T12:32:51.103Z,99771.41
2023-04-11T12:35:19.284Z,99778.53
2023-04-11T12:37:47.182Z,99771.72
2023-04-11T12:40:15.399Z,99768.41
2023-04-11T12:42:55.226Z,99761.11
2023-04-11T12:45:26.047Z,99755.17
2023-04-11T12:47:54.586Z,99746.14
2023-04-11T12:50:25.912Z,99741.20
2023-04-11T12:52:56.245Z,99737.08
2023-04-11T12:55:24.652Z,99733.98
2023-04-11T12:57:55.304Z,99728.16
2023-04-11T13:00:23.810Z,99722.67
2023-04-11T13:03:12.331Z,99722.83
2023-04-11T13:05:43.616Z,99714.02
2023-04-11T13:08:11.647Z,99707.57
2023-04-11T13:10:39.703Z,99701.71
2023-04-11T13:13:17.537Z,99694.90
2023-04-11T13:15:46.621Z,99696.55
2023-04-11T13:18:14.511Z,99690.35
2023-04-11T13:20:46.090Z,99687.69
2023-04-11T13:23:16.627Z,99688.35
2023-04-11T13:25:48.556Z,99682.64
2023-04-11T13:28:16.883Z,99677.59
2023-04-11T13:30:44.815Z,99676.27
2023-04-11T13:33:12.784Z,99676.05
2023-04-11T13:35:40.992Z,99663.23
2023-04-11T13:38:11.454Z,99660.12
2023-04-11T13:40:41.196Z,99658.02
2023-04-11T13:43:10.988Z,99660.01
2023-04-11T13:45:39.289Z,99653.69
2023-04-11T13:48:08.096Z,99646.60
2023-04-11T13:50:37.715Z,99640.23
2023-04-11T13:53:05.576Z,99637.20
2023-04-11T13:55:34.141Z,99634.08
2023-04-11T13:58:02.290Z,99629.53
2023-04-11T14:00:39.155Z,99621.55
2023-04-11T14:03:07.607Z,99620.86
2023-04-11T14:05:36.717Z,99623.30
2023-04-11T14:08:09.672Z,99614.73
2023-04-11T14:10:39.302Z,99609.61
2023-04-11T14:13:07.338Z,99605.98
2023-04-11T14:15:36.791Z,99600.98
2023-04-11T14:18:05.079Z,99597.92
2023-04-11T14:20:38.363Z,99591.16
2023-04-11T14:23:06.521Z,99588.60
2023-04-11T14:25:34.540Z,99587.42
2023-04-11T14:28:03.457Z,99578.36
2023-04-11T14:30:32.346Z,99581.09
2023-04-11T14:33:01.223Z,99572.42
2023-04-11T14:35:30.030Z,99578.73
2023-04-11T14:37:58.261Z,99573.00
2023-04-11T14:40:26.842Z,99571.36
2023-04-11T14:42:57.902Z,99569.11
2023-04-11T14:45:29.488Z,99569.17
2023-04-11T14:47:57.561Z,99564.50
2023-04-11T14:50:26.991Z,99563.23
2023-04-11T14:52:57.414Z,99569.85
2023-04-11T14:55:25.666Z,99567.20
2023-04-11T14:57:54.990Z,99559.74
2023-04-11T15:00:24.982Z,99555.25
2023-04-11T15:02:55.082Z,99554.55
2023-04-11T15:05:23.524Z,99551.52
2023-04-11T15:07:53.262Z,99544.07
2023-04-11T15:10:23.321Z,99547.30
2023-04-11T15:12:51.346Z,99537.63
2023-04-11T15:15:19.395Z,99535.30
2023-04-11T15:17:49.295Z,99532.11
2023-04-11T15:20:20.023Z,99528.53
2023-04-11T15:22:48.239Z,99528.98
2023-04-11T15:25:16.863Z,99523.11
2023-04-11T15:27:44.861Z,99517.68
2023-04-11T15:30:13.719Z,99514.46
2023-04-11T15:32:43.683Z,99517.28
2023-04-11T15:35:12.334Z,99514.09
2023-04-11T15:37:42.243Z,99510.10
2023-04-11T15:40:15.297Z,99508.80
2023-04-11T15:42:44.429Z,99507.19
2023-04-11T15:45:13.385Z,99504.70
2023-04-11T15:47:41.334Z,99495.13
2023-04-11T15:50:10.227Z,99494.48
2023-04-11T15:52:38.211Z,99492.39
2023-04-11T15:55:06.956Z,99491.61
2023-04-11T15:57:35.859Z,99491.62
2023-04-11T16:00:09.147Z,99489.07
2023-04-11T16:02:39.717Z,99482.78
2023-04-11T16:05:08.620Z,99477.00
2023-04-11T16:07:37.256Z,99475.66
2023-04-11T16:10:07.807Z,99473.77
2023-04-11T16:12:36.363Z,99471.52
2023-04-11T16:15:07.165Z,99469.57
2023-04-11T16:17:39.317Z,99469.38
2023-04-11T16:20:11.185Z,99468.43
2023-04-11T16:22:39.928Z,99465.23
2023-04-11T16:25:08.767Z,99460.51
2023-04-11T16:27:37.217Z,99463.72
2023-04-11T16:30:06.187Z,99467.41
2023-04-11T16:32:34.922Z,99461.34
2023-04-11T16:35:03.132Z,99460.45
2023-04-11T16:37:31.205Z,99458.51
2023-04-11T16:40:00.263Z,99461.08
2023-04-11T16:42:28.112Z,99455.11
2023-04-11T16:44:56.484Z,99458.33
2023-04-11T16:47:26.339Z,99451.95
2023-04-11T16:49:55.004Z,99448.30
2023-04-11T16:52:23.652Z,99441.52
2023-04-11T16:54:54.868Z,99439.21
2023-04-11T16:57:22.893Z,99440.08
2023-04-11T16:59:51.682Z,99436.08
2023-04-11T17:02:19.757Z,99435.48
2023-04-11T17:04:47.762Z,99434.90
2023-04-11T17:07:18.139Z,99432.71
2023-04-11T17:09:47.454Z,99431.52
2023-04-11T17:12:15.448Z,99430.48
2023-04-11T17:14:52.713Z,99427.55
2023-04-11T17:17:20.923Z,99426.54
2023-04-11T17:19:48.728Z,99423.59
2023-04-11T17:22:18.128Z,99417.64
2023-04-11T17:24:46.287Z,99416.01
2023-04-11T17:27:16.441Z,99413.27
2023-04-11T17:29:47.289Z,99410.55
2023-04-11T17:32:15.121Z,99404.55
2023-04-11T17:34:43.191Z,99402.32
2023-04-11T17:37:11.702Z,99406.52
2023-04-11T17:39:39.668Z,99409.98
2023-04-11T17:42:14.656Z,99412.50
2023-04-11T17:44:43.296Z,99410.71
2023-04-11T17:47:11.364Z,99413.42
2023-04-11T17:49:39.833Z,99415.08
2023-04-11T17:52:08.823Z,99415.25
2023-04-11T17:54:38.373Z,99420.23
2023-04-11T17:57:07.762Z,99424.98
2023-04-11T17:59:39.537Z,99428.59
2023-04-11T18:02:08.177Z,99427.42
2023-04-11T18:04:36.531Z,99428.98
2023-04-11T18:07:08.181Z,99418.91
2023-04-11T18:09:37.965Z,99415.27
2023-04-11T18:12:06.359Z,99402.77
2023-04-11T18:14:42.919Z,99399.94
2023-04-11T18:17:12.054Z,99394.61
2023-04-11T18:19:40.409Z,99389.89
2023-04-11T18:22:10.649Z,99385.48
2023-04-11T18:24:38.672Z,99379.18
2023-04-11T18:27:06.719Z,99377.36
2023-04-11T18:29:35.726Z,99371.45
2023-04-11T18:32:03.971Z,99366.84
2023-04-11T18:34:31.825Z,99361.44
2023-04-11T18:36:59.686Z,99359.88
2023-04-11T18:39:28.048Z,99355.44
2023-04-11T18:41:56.002Z,99357.29
2023-04-11T18:44:24.103Z,99357.40
2023-04-11T18:46:54.573Z,99355.13
2023-04-11T18:49:24.378Z,99356.48
2023-04-11T18:51:52.989Z,99351.16
2023-04-11T18:54:23.428Z,99344.67
2023-04-11T18:59:23.529Z,99334.08
2023-04-11T19:01:53.164Z,99327.81
2023-04-11T19:04:23.090Z,99320.89
2023-04-11T19:06:51.701Z,99317.01
2023-04-11T19:09:23.745Z,99312.18
2023-04-11T19:11:51.857Z,99311.16
2023-04-11T19:14:19.739Z,99307.89
2023-04-11T19:16:47.690Z,99302.69
2023-04-11T19:19:15.725Z,99302.34
2023-04-11T19:21:43.537Z,99297.91
2023-04-11T19:24:11.636Z,99293.77
2023-04-11T19:26:41.014Z,99291.21
2023-04-11T19:29:10.912Z,99282.08
2023-04-11T19:31:40.096Z,99276.91
2023-04-11T19:34:08.509Z,99271.55
2023-04-11T19:36:36.825Z,99271.24
2023-04-11T19:39:05.040Z,99268.82
2023-04-11T19:41:32.938Z,99271.94
2023-04-11T19:44:01.276Z,99271.80
2023-04-11T19:46:29.780Z,99275.10
2023-04-11T19:48:58.044Z,99275.56
2023-04-11T19:51:26.368Z,99270.61
2023-04-11T19:53:56.662Z,99267.63
2023-04-11T19:56:24.779Z,99263.73
2023-04-11T19:58:52.639Z,99258.66
2023-04-11T20:01:20.829Z,99253.98
2023-04-11T20:03:53.611Z,99251.18
2023-04-11T20:06:22.767Z,99248.15
2023-04-11T20:08:51.271Z,99249.21
2023-04-11T20:11:22.163Z,99243.66
2023-04-11T20:13:50.192Z,99240.24
2023-04-11T20:16:23.289Z,99235.96
2023-04-11T20:18:52.386Z,99233.80
2023-04-11T20:21:20.562Z,99228.60
2023-04-11T20:23:49.869Z,99219.44
2023-04-11T20:26:18.125Z,99216.70
2023-04-11T20:28:46.168Z,99213.52
2023-04-11T20:31:14.135Z,99212.44
2023-04-11T20:33:44.234Z,99211.05
2023-04-11T20:36:15.637Z,99212.73
2023-04-11T20:38:44.738Z,99213.05
2023-04-11T20:41:13.611Z,99219.75
2023-04-11T20:43:42.269Z,99213.95
2023-04-11T20:46:13.416Z,99212.43
2023-04-11T20:48:42.769Z,99213.22
2023-04-11T20:51:11.359Z,99208.27
2023-04-11T20:53:39.620Z,99210.76
2023-04-11T20:56:07.996Z,99212.59
2023-04-11T20:58:35.950Z,99205.58
2023-04-11T21:01:04.602Z,99206.93
2023-04-11T21:03:37.440Z,99202.92
2023-04-11T21:06:07.694Z,99203.83
2023-04-11T21:08:38.062Z,99204.07
2023-04-11T21:11:06.358Z,99204.84
2023-04-11T21:13:34.880Z,99208.73
2023-04-11T21:16:04.551Z,99206.06
2023-04-11T21:18:36.110Z,99209.83
2023-04-11T21:21:08.354Z,99208.48
2023-04-11T21:23:41.275Z,99199.64
2023-04-11T21:26:09.345Z,99192.86
2023-04-11T21:28:44.209Z,99195.15
2023-04-11T21:31:31.919Z,99189.80
2023-04-11T21:34:00.560Z,99189.72
2023-04-11T21:36:29.548Z,99181.64
2023-04-11T21:38:58.169Z,99175.27
2023-04-11T21:41:28.923Z,99170.05
2023-04-11T21:43:57.042Z,99164.54
2023-04-11T21:46:29.276Z,99151.89
2023-04-11T21:48:57.281Z,99148.48
2023-04-11T21:51:26.618Z,99141.90
2023-04-11T21:53:54.926Z,99138.41
2023-04-11T21:56:22.987Z,99134.87
2023-04-11T21:58:53.601Z,99125.80
2023-04-11T22:01:23.947Z,99123.45
2023-04-11T22:03:52.329Z,99119.21
2023-04-11T22:06:20.626Z,99112.48
2023-04-11T22:08:50.877Z,99107.79
2023-04-11T22:11:19.006Z,99109.64
2023-04-11T22:13:49.658Z,99102.12
2023-04-11T22:16:18.898Z,99099.23
2023-04-11T22:18:47.010Z,99093.03
2023-04-11T22:21:20.640Z,99082.48
2023-04-11T22:23:54.304Z,99078.16
2023-04-11T22:26:35.134Z,99073.23
2023-04-11T22:29:05.866Z,99071.08
2023-04-11T22:31:34.800Z,99068.38
2023-04-11T22:34:02.930Z,99062.27
2023-04-11T22:36:35.650Z,99058.04
2023-04-11T22:39:05.203Z,99054.48
2023-04-11T22:41:40.872Z,99054.74
2023-04-11T22:44:09.239Z,99048.89
2023-04-11T22:46:39.231Z,99038.77
2023-04-11T22:49:09.990Z,99032.48
2023-04-11T22:51:38.078Z,99027.01
2023-04-11T22:54:05.912Z,99029.00
2023-04-11T22:56:33.987Z,99029.17
2023-04-11T22:59:04.015Z,99020.32
2023-04-11T23:01:33.158Z,99016.27
2023-04-11T23:04:02.007Z,99014.48
2023-04-11T23:06:31.100Z,99013.77
2023-04-11T23:08:59.404Z,99010.54
2023-04-11T23:11:27.536Z,99008.31
2023-04-11T23:13:56.798Z,99006.21
2023-04-11T23:16:26.255Z,99002.86
2023-04-11T23:18:55.478Z,98996.66
2023-04-11T23:21:23.979Z,98989.77
2023-04-11T23:23:52.670Z,98986.52
2023-04-11T23:26:20.809Z,98985.39
2023-04-11T23:28:50.470Z,98981.79
2023-04-11T23:31:18.646Z,98977.41
2023-04-11T23:33:46.539Z,98969.20
2023-04-11T23:36:16.815Z,98959.04
2023-04-11T23:38:46.305Z,98960.09
2023-04-11T23:41:17.597Z,98952.98
2023-04-11T23:43:46.927Z,98951.77
2023-04-11T23:48:43.483Z,98951.85
2023-04-11T23:51:11.457Z,98961.54
2023-04-11T23:53:40.404Z,98956.98
2023-04-11T23:56:09.169Z,98951.98
2023-04-11T23:58:37.867Z,98948.95
